createdAt,value
2018-03-06T00:02:12.687Z,65.30
2018-03-06T00:04:40.998Z,64.80
2018-03-06T00:07:09.027Z,64.80
2018-03-06T00:09:37.334Z,65.10
2018-03-06T00:12:05.633Z,65.00
2018-03-06T00:14:33.183Z,64.90
2018-03-06T00:17:00.738Z,65.00
2018-03-06T00:19:28.255Z,65.40
2018-03-06T00:21:56.998Z,65.80
2018-03-06T00:24:26.281Z,66.00
2018-03-06T00:26:53.809Z,65.90
2018-03-06T00:29:22.109Z,66.30
2018-03-06T00:31:49.636Z,66.30
2018-03-06T00:34:18.517Z,67.00
2018-03-06T00:36:46.112Z,66.30
2018-03-06T00:39:14.391Z,67.00
2018-03-06T00:41:41.931Z,66.90
2018-03-06T00:44:10.228Z,67.90
2018-03-06T00:46:37.774Z,67.90
2018-03-06T00:49:06.105Z,68.70
2018-03-06T00:51:33.671Z,68.60
2018-03-06T00:54:05.298Z,68.10
2018-03-06T00:56:32.857Z,68.20
2018-03-06T00:59:00.406Z,68.10
2018-03-06T01:01:27.937Z,67.70
2018-03-06T01:03:56.390Z,68.10
2018-03-06T01:06:23.942Z,68.10
2018-03-06T01:08:51.840Z,68.00
2018-03-06T01:11:19.368Z,67.50
2018-03-06T01:13:46.898Z,67.70
2018-03-06T01:16:14.441Z,68.30
2018-03-06T01:18:43.507Z,70.30
2018-03-06T01:21:11.070Z,70.30
2018-03-06T01:23:38.630Z,70.10
2018-03-06T01:26:06.804Z,70.10
2018-03-06T01:28:34.337Z,70.20
2018-03-06T01:31:06.203Z,70.00
2018-03-06T01:33:33.786Z,70.00
2018-03-06T01:36:01.308Z,70.30
2018-03-06T01:38:30.202Z,70.70
2018-03-06T01:40:58.168Z,70.00
2018-03-06T01:43:25.726Z,69.70
2018-03-06T01:45:53.288Z,69.60
2018-03-06T01:48:20.940Z,69.70
2018-03-06T01:50:48.481Z,69.30
2018-03-06T01:53:16.013Z,69.30
2018-03-06T01:55:45.140Z,69.20
2018-03-06T01:58:16.759Z,69.20
2018-03-06T02:00:44.304Z,69.20
2018-03-06T02:03:12.064Z,69.50
2018-03-06T02:05:39.611Z,68.90
2018-03-06T02:08:07.146Z,69.70
2018-03-06T02:10:34.722Z,70.20
2018-03-06T02:13:02.274Z,70.90
2018-03-06T02:15:30.613Z,71.30
2018-03-06T02:17:58.922Z,70.80
2018-03-06T02:20:26.464Z,70.80
2018-03-06T02:22:58.876Z,70.30
2018-03-06T02:25:26.443Z,70.30
2018-03-06T02:27:54.060Z,70.20
2018-03-06T02:30:22.939Z,69.10
2018-03-06T02:32:51.254Z,68.70
2018-03-06T02:35:18.827Z,68.60
2018-03-06T02:37:50.907Z,68.10
2018-03-06T02:40:18.481Z,67.50
2018-03-06T02:42:46.569Z,66.70
2018-03-06T02:45:15.137Z,67.00
2018-03-06T02:47:42.680Z,67.00
2018-03-06T02:50:14.427Z,66.90
2018-03-06T02:52:41.982Z,66.90
2018-03-06T02:55:09.639Z,67.10
2018-03-06T02:57:37.179Z,67.10
2018-03-06T03:00:04.720Z,67.00
2018-03-06T03:02:33.370Z,68.60
2018-03-06T03:05:01.045Z,68.50
2018-03-06T03:07:28.573Z,69.30
2018-03-06T03:09:56.791Z,70.20
2018-03-06T03:12:25.167Z,71.30
2018-03-06T03:14:53.623Z,71.40
2018-03-06T03:17:21.161Z,72.00
2018-03-06T03:19:48.726Z,71.90
2018-03-06T03:22:16.848Z,72.00
2018-03-06T03:24:44.384Z,72.10
2018-03-06T03:27:12.248Z,71.80
2018-03-06T03:29:44.512Z,71.40
2018-03-06T03:32:12.723Z,71.40
2018-03-06T03:34:40.253Z,70.90
2018-03-06T03:37:07.784Z,71.20
2018-03-06T03:39:35.994Z,71.40
2018-03-06T03:42:03.843Z,71.00
2018-03-06T03:44:31.382Z,70.80
2018-03-06T03:56:50.329Z,73.70
2018-03-06T03:59:19.916Z,73.70
2018-03-06T04:01:51.297Z,73.30
2018-03-06T04:04:19.865Z,72.70
2018-03-06T04:06:48.142Z,72.50
2018-03-06T04:09:15.664Z,72.10
2018-03-06T04:11:43.201Z,71.30
2018-03-06T04:14:10.802Z,71.00
2018-03-06T04:16:38.353Z,70.70
2018-03-06T04:19:09.461Z,71.00
2018-03-06T04:21:37.572Z,70.90
2018-03-06T04:24:05.096Z,70.80
2018-03-06T04:26:33.436Z,70.80
2018-03-06T04:29:02.191Z,70.70
2018-03-06T04:31:29.793Z,70.60
2018-03-06T04:33:57.380Z,70.50
2018-03-06T04:36:25.325Z,70.60
2018-03-06T04:39:01.011Z,70.50
2018-03-06T04:41:29.645Z,70.70
2018-03-06T04:43:57.187Z,70.70
2018-03-06T04:46:24.738Z,70.80
2018-03-06T04:48:52.305Z,71.00
2018-03-06T04:51:24.366Z,70.50
2018-03-06T04:53:51.920Z,70.10
2018-03-06T04:56:19.562Z,69.80
2018-03-06T04:58:49.431Z,69.40
2018-03-06T05:01:20.830Z,69.10
2018-03-06T05:03:49.755Z,69.10
2018-03-06T05:06:17.277Z,69.10
2018-03-06T05:08:44.809Z,70.00
2018-03-06T05:11:16.675Z,70.20
2018-03-06T05:13:48.123Z,70.10
2018-03-06T05:16:16.677Z,69.70
2018-03-06T05:18:44.210Z,70.20
2018-03-06T05:21:12.830Z,70.10
2018-03-06T05:23:44.101Z,70.10
2018-03-06T05:26:15.937Z,69.80
2018-03-06T05:28:43.487Z,69.80
2018-03-06T05:31:11.034Z,69.90
2018-03-06T05:33:39.717Z,70.00
2018-03-06T05:36:07.250Z,70.10
2018-03-06T05:38:34.792Z,70.00
2018-03-06T05:41:06.588Z,70.00
2018-03-06T05:43:36.623Z,69.90
2018-03-06T05:46:06.664Z,70.00
2018-03-06T05:48:34.216Z,70.00
2018-03-06T05:51:01.768Z,69.60
2018-03-06T05:53:29.304Z,69.50
2018-03-06T05:55:57.603Z,69.50
2018-03-06T05:58:25.242Z,69.50
2018-03-06T06:00:53.264Z,68.90
2018-03-06T06:03:23.408Z,69.50
2018-03-06T06:05:51.640Z,68.70
2018-03-06T06:08:19.168Z,68.60
2018-03-06T06:10:49.141Z,68.40
2018-03-06T06:13:16.767Z,68.40
2018-03-06T06:15:44.723Z,68.30
2018-03-06T06:18:13.030Z,68.60
2018-03-06T06:20:41.740Z,68.60
2018-03-06T06:23:09.995Z,68.60
2018-03-06T06:25:39.042Z,68.50
2018-03-06T06:28:06.598Z,68.20
2018-03-06T06:30:38.063Z,68.10
2018-03-06T06:33:14.012Z,68.30
2018-03-06T06:35:45.892Z,68.50
2018-03-06T06:38:15.992Z,68.80
2018-03-06T06:40:43.500Z,68.80
2018-03-06T06:43:11.132Z,68.60
2018-03-06T06:45:39.754Z,68.20
2018-03-06T06:48:11.158Z,68.40
2018-03-06T06:50:39.501Z,67.00
2018-03-06T06:53:07.016Z,67.00
2018-03-06T06:55:38.659Z,66.80
2018-03-06T06:58:06.950Z,66.10
2018-03-06T07:00:35.032Z,66.10
2018-03-06T07:03:02.561Z,66.50
2018-03-06T07:05:31.594Z,66.40
2018-03-06T07:07:59.116Z,66.40
2018-03-06T07:10:27.418Z,65.60
2018-03-06T07:12:54.964Z,65.70
2018-03-06T07:15:23.242Z,63.90
2018-03-06T07:17:51.530Z,61.80
2018-03-06T07:20:19.051Z,61.70
2018-03-06T07:22:46.586Z,59.10
2018-03-06T07:25:14.103Z,56.50
2018-03-06T07:27:41.898Z,55.40
2018-03-06T07:30:09.446Z,54.30
2018-03-06T07:32:36.980Z,52.80
2018-03-06T07:35:05.285Z,50.50
2018-03-06T07:37:37.697Z,50.50
2018-03-06T07:40:05.281Z,49.30
2018-03-06T07:42:34.172Z,47.60
2018-03-06T07:45:03.491Z,44.70
2018-03-06T07:47:31.008Z,45.50
2018-03-06T07:50:02.723Z,43.60
2018-03-06T07:52:30.301Z,42.90
2018-03-06T07:55:01.639Z,42.20
2018-03-06T07:57:30.348Z,45.10
2018-03-06T07:59:57.868Z,45.40
2018-03-06T08:02:25.499Z,45.20
2018-03-06T08:04:53.037Z,42.90
2018-03-06T08:07:20.565Z,44.30
2018-03-06T08:09:48.398Z,43.00
2018-03-06T08:12:16.760Z,41.60
2018-03-06T08:14:45.631Z,41.40
2018-03-06T08:17:17.857Z,41.10
2018-03-06T08:19:45.672Z,40.50
2018-03-06T08:22:13.222Z,40.10
2018-03-06T08:24:40.769Z,39.70
2018-03-06T08:27:09.665Z,39.60
2018-03-06T08:29:37.181Z,38.90
2018-03-06T08:32:10.191Z,39.00
2018-03-06T08:34:38.278Z,39.00
2018-03-06T08:37:05.823Z,38.70
2018-03-06T08:39:33.356Z,38.50
2018-03-06T08:42:05.481Z,36.60
2018-03-06T08:44:33.022Z,36.50
2018-03-06T08:47:04.570Z,35.90
2018-03-06T08:49:34.176Z,34.60
2018-03-06T08:52:01.839Z,34.50
2018-03-06T08:54:29.389Z,35.70
2018-03-06T08:57:02.431Z,37.50
2018-03-06T08:59:34.013Z,37.80
2018-03-06T09:02:02.311Z,39.30
2018-03-06T09:04:30.297Z,39.30
2018-03-06T09:06:57.829Z,38.30
2018-03-06T09:09:25.436Z,38.60
2018-03-06T09:11:54.499Z,39.30
2018-03-06T09:27:22.917Z,38.70
2018-03-06T09:29:53.176Z,40.80
2018-03-06T09:32:21.090Z,38.60
2018-03-06T09:34:48.642Z,37.80
2018-03-06T09:37:20.913Z,36.40
2018-03-06T09:39:48.438Z,36.50
2018-03-06T17:25:39.270Z,57.80
2018-03-06T17:28:07.332Z,57.80
2018-03-06T17:30:34.858Z,57.80
